createdAt,value
2022-12-20T00:01:56.335Z,31.83
2022-12-20T00:04:24.752Z,30.90
2022-12-20T00:06:54.416Z,32.77
2022-12-20T00:09:22.701Z,33.00
2022-12-20T00:11:50.983Z,33.70
2022-12-20T00:14:19.677Z,33.87
2022-12-20T00:16:48.043Z,33.17
2022-12-20T00:19:16.319Z,31.23
2022-12-20T00:21:44.572Z,32.63
2022-12-20T00:24:14.212Z,32.53
2022-12-20T00:26:42.898Z,30.77
2022-12-20T00:29:11.239Z,31.03
2022-12-20T00:31:39.943Z,31.33
2022-12-20T00:34:11.076Z,33.67
2022-12-20T00:36:41.520Z,30.40
2022-12-20T00:39:11.308Z,30.73
2022-12-20T00:41:41.330Z,33.00
2022-12-20T00:44:09.621Z,31.43
2022-12-20T00:46:38.209Z,34.77
2022-12-20T00:49:07.570Z,35.07
2022-12-20T00:51:35.809Z,31.77
2022-12-20T00:54:05.432Z,30.03
2022-12-20T00:56:34.130Z,29.47
2022-12-20T00:59:03.786Z,30.60
2022-12-20T01:01:34.827Z,28.93
2022-12-20T01:04:08.269Z,30.87
2022-12-20T01:06:44.484Z,31.13
2022-12-20T01:09:12.963Z,30.93
2022-12-20T01:11:41.196Z,28.83
2022-12-20T01:14:15.858Z,31.27
2022-12-20T01:16:46.788Z,27.30
2022-12-20T01:19:19.842Z,30.37
2022-12-20T01:21:48.196Z,29.23
2022-12-20T01:24:19.510Z,28.67
2022-12-20T01:26:49.045Z,29.90
2022-12-20T01:29:18.701Z,26.10
2022-12-20T01:31:47.289Z,29.57
2022-12-20T01:34:15.675Z,25.10
2022-12-20T01:36:43.953Z,26.33
2022-12-20T01:39:16.375Z,26.70
2022-12-20T01:41:47.169Z,28.63
2022-12-20T01:44:56.119Z,28.23
2022-12-20T01:47:25.948Z,25.70
2022-12-20T01:49:56.851Z,30.97
2022-12-20T01:52:32.716Z,31.30
2022-12-20T01:55:09.058Z,31.03
2022-12-20T01:57:43.727Z,31.23
2022-12-20T02:00:16.060Z,33.00
2022-12-20T02:02:46.590Z,26.67
2022-12-20T02:05:17.221Z,32.00
2022-12-20T02:07:51.060Z,27.03
2022-12-20T02:10:22.742Z,30.90
2022-12-20T02:13:00.125Z,32.60
2022-12-20T02:15:44.228Z,33.47
2022-12-20T02:18:22.504Z,27.90
2022-12-20T02:21:12.990Z,27.97
2022-12-20T02:24:28.774Z,29.17
2022-12-20T02:27:42.452Z,26.83
2022-12-20T02:30:16.617Z,27.20
2022-12-20T02:33:01.365Z,28.73
2022-12-20T02:35:32.813Z,30.50
2022-12-20T02:38:24.593Z,24.53
2022-12-20T02:40:57.899Z,30.13
2022-12-20T02:43:46.506Z,27.13
2022-12-20T02:46:17.935Z,24.27
2022-12-20T02:48:48.835Z,27.07
2022-12-20T02:51:19.921Z,25.87
2022-12-20T02:53:48.680Z,25.00
2022-12-20T02:56:24.505Z,24.70
2022-12-20T02:58:59.741Z,25.83
2022-12-20T03:01:57.537Z,28.70
2022-12-20T03:04:30.332Z,27.90
2022-12-20T03:07:09.912Z,27.47
2022-12-20T03:09:42.200Z,28.00
2022-12-20T03:12:16.037Z,27.47
2022-12-20T03:14:44.656Z,23.17
2022-12-20T03:17:16.242Z,27.70
2022-12-20T03:19:44.521Z,27.30
2022-12-20T03:22:12.787Z,27.37
2022-12-20T03:24:41.237Z,24.50
2022-12-20T03:27:13.642Z,24.00
2022-12-20T03:29:42.057Z,28.93
2022-12-20T03:32:10.384Z,25.17
2022-12-20T03:34:41.808Z,33.23
2022-12-20T03:37:11.586Z,27.00
2022-12-20T03:39:39.920Z,31.70
2022-12-20T03:42:09.642Z,27.13
2022-12-20T03:44:37.994Z,30.57
2022-12-20T03:47:06.457Z,35.13
2022-12-20T03:49:37.609Z,27.53
2022-12-20T03:52:07.576Z,25.97
2022-12-20T03:54:35.923Z,27.00
2022-12-20T03:57:18.962Z,24.40
2022-12-20T03:59:50.206Z,30.33
2022-12-20T04:02:21.490Z,25.07
2022-12-20T04:04:50.723Z,25.90
2022-12-20T04:07:20.733Z,24.07
2022-12-20T04:09:49.244Z,23.77
2022-12-20T04:12:18.343Z,23.93
2022-12-20T04:14:46.963Z,24.20
2022-12-20T04:17:15.426Z,26.10
2022-12-20T04:19:44.204Z,25.23
2022-12-20T04:22:14.018Z,25.37
2022-12-20T04:24:56.631Z,27.27
2022-12-20T04:27:32.730Z,28.47
2022-12-20T04:30:02.904Z,29.20
2022-12-20T04:32:31.367Z,28.33
2022-12-20T04:35:01.260Z,27.33
2022-12-20T04:37:29.781Z,25.27
2022-12-20T04:40:01.167Z,29.73
2022-12-20T04:42:54.370Z,26.00
2022-12-20T04:45:23.058Z,24.53
2022-12-20T04:47:53.223Z,21.03
2022-12-20T04:50:27.578Z,23.40
2022-12-20T04:53:13.622Z,24.90
2022-12-20T04:55:43.286Z,23.47
2022-12-20T04:58:11.744Z,22.23
2022-12-20T05:00:41.928Z,20.13
2022-12-20T05:03:25.641Z,24.87
2022-12-20T05:05:54.497Z,24.47
2022-12-20T05:08:23.686Z,24.47
2022-12-20T05:10:55.393Z,25.40
2022-12-20T05:13:23.674Z,26.20
2022-12-20T05:15:53.425Z,22.37
2022-12-20T05:18:26.487Z,26.93
2022-12-20T05:21:25.252Z,29.50
2022-12-20T05:24:12.494Z,29.40
2022-12-20T05:26:55.268Z,26.70
2022-12-20T05:29:23.636Z,24.23
2022-12-20T05:31:52.581Z,26.47
2022-12-20T05:34:21.187Z,23.83
2022-12-20T05:36:54.158Z,29.43
2022-12-20T05:39:24.542Z,30.70
2022-12-20T05:41:57.275Z,29.73
2022-12-20T05:44:29.328Z,28.97
2022-12-20T05:46:59.385Z,28.50
2022-12-20T05:49:31.191Z,31.93
2022-12-20T05:52:03.387Z,25.97
2022-12-20T05:54:31.666Z,27.73
2022-12-20T05:57:12.521Z,27.10
2022-12-20T05:59:42.626Z,30.67
2022-12-20T06:02:17.921Z,24.37
2022-12-20T06:04:48.576Z,29.50
2022-12-20T06:07:24.979Z,26.67
2022-12-20T06:09:57.682Z,25.13
2022-12-20T06:12:38.750Z,26.10
2022-12-20T06:15:09.232Z,25.57
2022-12-20T06:17:39.912Z,24.10
2022-12-20T06:20:10.245Z,25.50
2022-12-20T06:22:38.664Z,23.63
2022-12-20T06:25:09.265Z,26.93
2022-12-20T06:27:39.584Z,25.83
2022-12-20T06:30:19.062Z,25.90
2022-12-20T06:32:56.936Z,22.73
2022-12-20T06:35:25.199Z,27.43
2022-12-20T06:37:56.503Z,22.53
2022-12-20T06:40:26.175Z,24.77
2022-12-20T06:42:55.926Z,23.80
2022-12-20T06:45:26.333Z,25.37
2022-12-20T06:47:55.425Z,27.43
2022-12-20T06:50:25.054Z,25.43
2022-12-20T06:52:53.428Z,25.67
2022-12-20T06:55:23.355Z,25.23
2022-12-20T06:57:52.326Z,22.83
2022-12-20T07:00:24.250Z,24.40
2022-12-20T07:02:52.599Z,24.83
2022-12-20T07:05:20.993Z,23.40
2022-12-20T07:07:49.218Z,23.50
2022-12-20T07:10:17.762Z,24.37
2022-12-20T07:12:48.361Z,26.20
2022-12-20T07:15:18.030Z,23.60
2022-12-20T07:17:48.013Z,22.63
2022-12-20T07:20:16.652Z,24.80
2022-12-20T07:22:44.978Z,23.13
2022-12-20T07:25:13.314Z,25.33
2022-12-20T07:27:41.582Z,25.87
2022-12-20T07:30:10.826Z,23.40
2022-12-20T07:32:39.031Z,24.07
2022-12-20T07:35:11.547Z,25.80
2022-12-20T07:37:40.017Z,25.03
2022-12-20T07:40:10.122Z,24.00
2022-12-20T07:42:46.236Z,23.43
2022-12-20T07:45:16.668Z,27.43
2022-12-20T07:47:45.335Z,25.63
2022-12-20T07:50:15.319Z,22.60
2022-12-20T07:52:47.361Z,24.87
2022-12-20T07:55:16.236Z,24.53
2022-12-20T07:57:50.436Z,24.27
2022-12-20T08:00:19.735Z,25.37
2022-12-20T08:02:53.940Z,25.37
2022-12-20T08:05:24.518Z,21.93
2022-12-20T08:07:59.019Z,26.20
2022-12-20T08:10:38.795Z,22.27
2022-12-20T08:13:10.306Z,26.13
2022-12-20T08:15:39.043Z,25.60
2022-12-20T08:18:07.765Z,24.17
2022-12-20T08:20:37.398Z,24.50
2022-12-20T08:23:06.266Z,24.37
2022-12-20T08:25:41.156Z,23.37
2022-12-20T08:28:10.950Z,27.40
2022-12-20T08:30:40.667Z,21.53
2022-12-20T08:33:08.929Z,21.70
2022-12-20T08:35:38.589Z,24.67
2022-12-20T08:38:07.513Z,23.77
2022-12-20T08:40:37.227Z,24.43
2022-12-20T08:43:10.205Z,23.10
2022-12-20T08:45:38.809Z,24.30
2022-12-20T08:48:08.556Z,24.40
2022-12-20T08:50:38.232Z,25.13
2022-12-20T08:53:06.475Z,20.20
2022-12-20T08:55:34.735Z,25.03
2022-12-20T08:58:03.003Z,24.07
2022-12-20T09:00:31.242Z,22.73
2022-12-20T09:02:59.717Z,24.27
2022-12-20T09:05:31.275Z,26.53
2022-12-20T09:08:00.895Z,22.83
2022-12-20T09:10:29.392Z,22.40
2022-12-20T09:12:57.646Z,27.70
2022-12-20T09:15:27.708Z,26.90
2022-12-20T09:17:56.669Z,23.97
2022-12-20T09:20:25.628Z,25.77
2022-12-20T09:22:54.054Z,23.37
2022-12-20T09:25:23.703Z,23.13
2022-12-20T09:27:51.973Z,23.67
2022-12-20T09:30:20.555Z,22.93
2022-12-20T09:32:48.734Z,22.40
2022-12-20T09:35:22.863Z,20.33
2022-12-20T09:37:51.550Z,24.30
2022-12-20T09:40:23.865Z,23.93
2022-12-20T09:42:53.320Z,24.50
2022-12-20T09:45:28.534Z,27.27
2022-12-20T09:47:56.989Z,24.83
2022-12-20T09:50:41.122Z,20.47
2022-12-20T09:53:24.201Z,19.63
2022-12-20T09:56:00.204Z,23.83
2022-12-20T09:58:58.649Z,23.87
2022-12-20T10:01:37.966Z,23.83
2022-12-20T10:04:16.914Z,22.43
2022-12-20T10:06:55.771Z,25.20
2022-12-20T10:09:45.595Z,21.53
2022-12-20T10:12:27.702Z,23.17
2022-12-20T10:15:16.028Z,23.27
2022-12-20T10:17:59.282Z,23.83
2022-12-20T10:20:45.904Z,23.03
2022-12-20T10:23:29.337Z,23.90
2022-12-20T10:26:01.036Z,22.00
2022-12-20T10:28:35.326Z,22.40
2022-12-20T10:31:07.741Z,22.07
2022-12-20T10:33:36.903Z,21.67
2022-12-20T10:36:26.247Z,23.03
2022-12-20T10:38:56.895Z,23.00
2022-12-20T10:41:27.799Z,23.13
2022-12-20T10:44:03.043Z,18.83
2022-12-20T10:46:42.391Z,19.63
2022-12-20T10:49:29.592Z,19.97
2022-12-20T10:52:00.687Z,22.70
2022-12-20T10:54:34.100Z,21.50
2022-12-20T10:57:06.735Z,20.50
2022-12-20T10:59:40.766Z,19.67
2022-12-20T11:02:39.963Z,20.23
2022-12-20T11:05:25.451Z,19.50
2022-12-20T11:10:46.826Z,25.13
2022-12-20T11:13:25.685Z,20.90
2022-12-20T11:16:01.598Z,20.47
2022-12-20T11:18:45.918Z,17.73
2022-12-20T11:21:28.738Z,22.20
2022-12-20T11:24:08.873Z,20.30
2022-12-20T11:26:56.661Z,22.93
2022-12-20T11:29:59.047Z,21.63
2022-12-20T11:32:48.684Z,18.23
2022-12-20T11:35:24.095Z,21.90
2022-12-20T11:38:09.243Z,20.53
2022-12-20T11:40:45.520Z,21.30
2022-12-20T11:44:07.962Z,19.97
2022-12-20T11:46:45.422Z,20.80
2022-12-20T11:49:48.228Z,21.43
2022-12-20T11:52:25.697Z,19.90
2022-12-20T11:55:05.510Z,20.20
2022-12-20T11:58:02.140Z,19.93
2022-12-20T12:00:30.774Z,21.07
2022-12-20T12:03:06.899Z,21.07
2022-12-20T12:05:44.875Z,21.60
2022-12-20T12:08:26.474Z,17.90
2022-12-20T12:10:59.606Z,24.13
2022-12-20T12:13:31.731Z,21.40
2022-12-20T12:16:07.871Z,19.43
2022-12-20T12:18:38.280Z,21.03
2022-12-20T12:21:18.263Z,16.87
2022-12-20T12:24:01.195Z,16.10
2022-12-20T12:26:32.151Z,18.90
2022-12-20T12:29:02.801Z,19.80
2022-12-20T12:31:39.953Z,19.47
2022-12-20T12:34:20.671Z,17.20
2022-12-20T12:37:32.322Z,19.77
2022-12-20T12:40:25.078Z,20.03
2022-12-20T12:43:35.565Z,20.93
2022-12-20T12:46:14.137Z,17.73
2022-12-20T12:48:50.154Z,18.07
2022-12-20T12:51:26.902Z,21.07
2022-12-20T12:54:13.447Z,16.97
2022-12-20T12:56:45.923Z,20.73
2022-12-20T12:59:45.991Z,21.07
2022-12-20T13:02:51.240Z,21.83
2022-12-20T13:05:35.443Z,19.50
2022-12-20T13:08:05.930Z,19.93
2022-12-20T13:11:03.167Z,20.33
2022-12-20T13:13:31.448Z,21.00
2022-12-20T13:17:02.792Z,20.50
2022-12-20T13:19:35.423Z,20.97
2022-12-20T13:22:22.906Z,20.67
2022-12-20T13:24:56.967Z,22.40
2022-12-20T13:27:31.216Z,21.87
2022-12-20T13:30:30.550Z,19.83
2022-12-20T13:33:25.193Z,20.93
2022-12-20T13:36:15.028Z,21.33
2022-12-20T13:38:59.277Z,24.43
2022-12-20T13:41:37.494Z,20.03
2022-12-20T13:44:41.009Z,20.73
2022-12-20T13:47:31.060Z,21.80
2022-12-20T13:50:02.826Z,22.37
2022-12-20T13:52:33.417Z,22.70
2022-12-20T13:55:09.011Z,21.33
2022-12-20T13:57:45.007Z,19.20
2022-12-20T14:00:20.532Z,20.87
2022-12-20T14:02:49.010Z,20.73
2022-12-20T14:05:23.426Z,21.37
2022-12-20T14:07:58.013Z,23.87
2022-12-20T14:10:29.237Z,21.30
2022-12-20T14:12:58.053Z,20.10
2022-12-20T14:15:31.827Z,22.00
2022-12-20T14:18:07.871Z,18.60
2022-12-20T14:20:38.529Z,19.23
2022-12-20T14:23:12.223Z,20.43
2022-12-20T14:25:45.013Z,17.17
2022-12-20T14:28:28.811Z,20.20
2022-12-20T14:31:01.350Z,25.53
2022-12-20T14:33:36.776Z,20.17
2022-12-20T14:36:19.504Z,19.27
2022-12-20T14:38:50.197Z,20.63
2022-12-20T14:41:37.309Z,17.70
2022-12-20T14:44:18.041Z,18.10
2022-12-20T14:46:52.695Z,18.53
2022-12-20T14:49:27.302Z,21.53
2022-12-20T14:52:12.347Z,18.23
2022-12-20T14:57:45.503Z,20.03
2022-12-20T15:00:22.430Z,20.77
2022-12-20T15:03:26.866Z,20.00
2022-12-20T15:05:57.411Z,19.13
2022-12-20T15:08:29.507Z,17.70
2022-12-20T15:11:03.471Z,19.47
2022-12-20T15:13:34.735Z,19.07
2022-12-20T15:16:05.631Z,23.17
2022-12-20T15:18:35.213Z,20.90
2022-12-20T15:21:07.497Z,19.93
2022-12-20T15:23:36.168Z,20.53
2022-12-20T15:26:04.458Z,18.23
2022-12-20T15:28:33.215Z,21.43
2022-12-20T15:31:01.514Z,21.57
2022-12-20T15:33:35.225Z,21.40
2022-12-20T15:36:03.408Z,19.67
2022-12-20T15:41:23.635Z,21.57
2022-12-20T15:43:55.402Z,20.17
2022-12-20T15:46:24.025Z,20.77
2022-12-20T15:48:53.692Z,21.13
2022-12-20T15:51:29.779Z,20.57
2022-12-20T15:53:58.703Z,19.93
2022-12-20T15:56:28.651Z,19.90
2022-12-20T15:58:57.318Z,23.40
2022-12-20T16:01:31.194Z,64.17
2022-12-20T16:04:06.832Z,118.03
2022-12-20T16:06:35.199Z,40.47
2022-12-20T16:09:03.836Z,24.93
2022-12-20T16:11:33.469Z,24.53
2022-12-20T16:14:01.875Z,23.10
2022-12-20T16:16:33.671Z,27.23
2022-12-20T16:19:03.760Z,23.27
2022-12-20T16:21:36.461Z,22.70
2022-12-20T16:24:05.455Z,26.27
2022-12-20T16:26:33.668Z,23.87
2022-12-20T16:29:01.835Z,20.97
2022-12-20T16:31:34.235Z,24.33
2022-12-20T16:34:05.612Z,21.70
2022-12-20T16:36:35.522Z,19.70
2022-12-20T16:39:03.705Z,18.07
2022-12-20T16:41:34.877Z,21.70
2022-12-20T16:44:04.799Z,17.83
2022-12-20T16:46:34.805Z,23.03
2022-12-20T16:49:03.145Z,23.13
2022-12-20T16:51:34.978Z,18.77
2022-12-20T16:54:21.789Z,17.93
2022-12-20T16:56:55.297Z,21.00
2022-12-20T16:59:24.037Z,17.37
2022-12-20T17:02:00.416Z,18.87
2022-12-20T17:04:29.032Z,23.13
2022-12-20T17:06:58.500Z,17.57
2022-12-20T17:09:26.787Z,20.47
2022-12-20T17:11:54.976Z,20.07
2022-12-20T17:14:23.228Z,21.20
2022-12-20T17:16:51.522Z,18.83
2022-12-20T17:19:20.160Z,18.97
2022-12-20T17:24:37.175Z,19.97
2022-12-20T17:27:10.515Z,18.77
2022-12-20T17:29:38.678Z,20.10
2022-12-20T17:32:21.285Z,21.07
2022-12-20T17:34:49.751Z,23.20
2022-12-20T17:37:18.677Z,20.20
2022-12-20T17:39:48.251Z,25.40
2022-12-20T17:42:17.313Z,21.20
2022-12-20T17:44:46.086Z,25.23
2022-12-20T17:47:14.491Z,37.60
2022-12-20T17:49:42.684Z,24.27
2022-12-20T17:52:15.303Z,29.83
2022-12-20T17:54:43.501Z,24.60
2022-12-20T17:57:16.536Z,25.90
2022-12-20T17:59:45.541Z,28.73
2022-12-20T18:02:22.724Z,24.07
2022-12-20T18:04:51.724Z,21.23
2022-12-20T18:07:20.734Z,24.27
2022-12-20T18:09:49.163Z,20.13
2022-12-20T18:12:19.048Z,18.43
2022-12-20T18:14:50.696Z,20.53
2022-12-20T18:17:19.127Z,20.10
2022-12-20T18:19:47.278Z,20.47
2022-12-20T18:22:15.815Z,18.37
2022-12-20T18:24:44.012Z,19.30
2022-12-20T18:27:12.164Z,17.30
2022-12-20T18:29:41.638Z,20.73
2022-12-20T18:32:09.961Z,18.87
2022-12-20T18:34:38.211Z,17.63
2022-12-20T18:37:06.558Z,20.93
2022-12-20T18:39:34.942Z,20.73
2022-12-20T18:42:03.273Z,19.97
2022-12-20T18:44:35.625Z,25.17
2022-12-20T18:47:05.739Z,21.73
2022-12-20T18:49:37.481Z,20.07
2022-12-20T18:52:07.246Z,18.93
2022-12-20T18:54:35.433Z,37.23
2022-12-20T18:57:05.937Z,90.17
2022-12-20T18:59:34.493Z,45.70
2022-12-20T19:02:03.051Z,24.37
2022-12-20T19:04:32.733Z,20.90
2022-12-20T19:07:00.903Z,20.20
2022-12-20T19:09:29.034Z,18.80
2022-12-20T19:11:58.032Z,18.70
2022-12-20T19:14:27.305Z,17.40
2022-12-20T19:16:55.579Z,17.30
2022-12-20T19:19:23.755Z,22.70
2022-12-20T19:21:53.392Z,17.13
2022-12-20T19:24:21.600Z,16.97
2022-12-20T19:26:49.792Z,18.97
2022-12-20T19:29:17.977Z,19.80
2022-12-20T19:31:46.504Z,19.37
2022-12-20T19:34:15.585Z,17.10
2022-12-20T19:36:45.832Z,17.83
2022-12-20T19:39:20.427Z,19.97
2022-12-20T19:44:37.561Z,18.53
2022-12-20T19:47:06.129Z,21.70
2022-12-20T19:49:35.421Z,20.90
2022-12-20T19:52:03.726Z,21.60
2022-12-20T19:54:33.440Z,23.60
2022-12-20T19:57:01.718Z,19.80
2022-12-20T19:59:31.044Z,22.50
2022-12-20T20:01:59.365Z,19.93
2022-12-20T20:04:27.771Z,19.27
2022-12-20T20:06:56.406Z,20.63
2022-12-20T20:09:24.813Z,20.17
2022-12-20T20:11:54.956Z,22.33
2022-12-20T20:14:23.561Z,22.63
2022-12-20T20:16:51.832Z,28.57
2022-12-20T20:19:20.589Z,24.50
2022-12-20T20:21:49.240Z,27.17
2022-12-20T20:24:17.625Z,28.43
2022-12-20T20:26:45.946Z,29.53
2022-12-20T20:29:15.501Z,29.33
2022-12-20T20:31:43.841Z,30.17
2022-12-20T20:34:12.325Z,25.57
2022-12-20T20:36:40.528Z,25.67
2022-12-20T20:39:08.880Z,29.67
2022-12-20T20:41:37.071Z,30.50
2022-12-20T20:44:05.832Z,29.17
2022-12-20T20:46:35.431Z,24.37
2022-12-20T20:49:03.731Z,21.97
2022-12-20T20:51:31.963Z,22.30
2022-12-20T20:54:00.188Z,22.90
2022-12-20T20:56:28.393Z,20.43
2022-12-20T20:59:02.647Z,21.93
2022-12-20T21:01:36.209Z,25.13
2022-12-20T21:04:07.187Z,45.53
2022-12-20T21:06:41.202Z,33.30
2022-12-20T21:09:10.121Z,25.83
2022-12-20T21:11:38.424Z,21.00
2022-12-20T21:14:06.771Z,19.60
2022-12-20T21:16:36.629Z,19.03
2022-12-20T21:19:05.679Z,21.00
2022-12-20T21:21:34.024Z,17.07
2022-12-20T21:24:02.294Z,19.63
2022-12-20T21:26:30.567Z,19.67
2022-12-20T21:28:59.790Z,17.20
2022-12-20T21:31:28.425Z,23.60
2022-12-20T21:33:59.254Z,19.83
2022-12-20T21:36:27.665Z,23.73
2022-12-20T21:38:58.097Z,18.70
2022-12-20T21:41:30.534Z,23.03
2022-12-20T21:44:00.520Z,20.13
2022-12-20T21:46:31.894Z,18.50
2022-12-20T21:51:56.342Z,19.03
2022-12-20T21:54:24.883Z,18.90
2022-12-20T21:56:53.255Z,17.23
2022-12-20T21:59:21.546Z,17.47
2022-12-20T22:01:50.096Z,16.33
2022-12-20T22:04:19.950Z,15.67
2022-12-20T22:06:48.215Z,19.10
2022-12-20T22:09:17.284Z,15.97
2022-12-20T22:11:48.533Z,18.60
2022-12-20T22:14:16.852Z,15.93
2022-12-20T22:16:45.360Z,19.87
2022-12-20T22:19:15.506Z,17.67
2022-12-20T22:21:45.090Z,20.70
2022-12-20T22:24:13.285Z,20.07
2022-12-20T22:26:41.904Z,18.90
2022-12-20T22:29:10.903Z,21.23
2022-12-20T22:31:39.200Z,18.37
2022-12-20T22:34:07.415Z,19.90
2022-12-20T22:36:36.875Z,16.33
2022-12-20T22:39:06.537Z,16.17
2022-12-20T22:41:35.493Z,12.63
2022-12-20T22:44:04.656Z,11.27
2022-12-20T22:46:33.187Z,15.10
2022-12-20T22:49:01.770Z,11.47
2022-12-20T22:51:37.223Z,11.47
2022-12-20T22:54:08.513Z,10.93
2022-12-20T22:56:36.668Z,11.17
2022-12-20T22:59:05.126Z,10.10
2022-12-20T23:01:33.482Z,10.40
2022-12-20T23:07:20.460Z,12.27
2022-12-20T23:09:50.009Z,12.60
2022-12-20T23:12:36.088Z,10.70
2022-12-20T23:15:22.032Z,11.00
2022-12-20T23:17:50.243Z,9.47
2022-12-20T23:20:32.686Z,11.87
2022-12-20T23:23:00.882Z,11.97
2022-12-20T23:25:30.453Z,9.33
2022-12-20T23:27:58.637Z,11.73
2022-12-20T23:30:26.860Z,9.83
2022-12-20T23:32:56.271Z,10.53
2022-12-20T23:35:26.998Z,7.67
2022-12-20T23:37:56.954Z,9.27
2022-12-20T23:40:25.112Z,9.97
2022-12-20T23:42:55.536Z,7.83
2022-12-20T23:45:23.773Z,9.57
2022-12-20T23:47:51.985Z,7.97
2022-12-20T23:50:20.165Z,7.77
2022-12-20T23:52:48.384Z,8.93
2022-12-20T23:55:16.780Z,7.93
2022-12-20T23:57:45.401Z,10.43
